PAKTPASI

Guest
Details From PAKT - KETCHIKAN INTL
To PASI - SITKA ROCKY GUTIERREZ
Flight Number -
Tags generated
Created
Modified
Stats Distance 160 nm / 297 km
Max Altitude 20,200 ft / 6,157 m
Waypoints 3
Social Downloads 4
Likes 0
Share VATSIM

Download

Looking for another format? Having issues loading an existing format? Contact us
Advertisement - Login to hide

Notes

Basic altitude profile: - Ascent Rate: 2500ft/min - Ascent Speed: 250kts - Cruise Altitude: 35000ft - Cruise Speed: 420kts - Descent Rate: 1500ft/min - Descent Speed: 250kts Options: - Use NATs: yes - Use PACOTS: yes - Use low airways: yes - Use high airways: yes

Route

PAKT TOKEE PASI

ID Type Via Altitude Latitude Longitude Leg Dist Tot Dist Heading (true) Name
O PAKT APT - 0 ft / 0 m 55.35554˚ -131.71374˚ - 0 nm - KETCHIKAN INTL
TOKEE FIX - 20,200 ft / 6,157 m 55.91250˚ -133.37881˚ 65 nm 65 nm 301° / 300° -
O PASI APT - 0 ft / 0 m 57.04713˚ -135.36160˚ 94 nm 160 nm 317° / 315° SITKA ROCKY GUTIERREZ

Altitude Profile

Advertisement - Login to hide

PAKT

Details ICAO PAKT (KTN)
Name KETCHIKAN INTL
Region USA (Alaska)
Timezone Unknown (UTC+0.0)
Stats Elevation 88 ft / 27 m (AMSL)
Location 55.355545° -131.713737°
Runways 1
Magnetic Variation 18.536° E

METAR

PAKT 110653Z AUTO 16011G19KT 9SM -RA OVC085 10/08 A3007

Decode

TAF

TAF AMD PAKT 110654Z 1107/1206 16015G25KT 4SM RA BR SCT020 BKN030 OVC050 WS020/14050KT TEMPO 1107/1109 14022G32KT FM111500 15012KT 3SM BR VCSH SCT008 SCT025 BKN110 WS020/15040KT FM111900 14014G22KT P6SM VCSH SCT015 BKN050 AMD LTD TO CLD VIS AND WIND TIL 111500

Decode

Departure Runways

ID Width Length Bearing (true) Bearing (mag) Surface Threshold Offset Overrun Length
11 150 ft / 46 m 7,485 ft / 2,281 m 135.66° 117.12° Asphalt 0 ft / 0 m 200 ft / 61 m
29 150 ft / 46 m 7,485 ft / 2,281 m 315.68° 297.14° Asphalt 0 ft / 0 m 100 ft / 30 m

PASI

Details ICAO PASI (SIT)
Name SITKA ROCKY GUTIERREZ
Region USA (Alaska)
Timezone America/Juneau (UTC-9.0)
Stats Elevation 21 ft / 6 m (AMSL)
Location 57.047128° -135.361597°
Runways 1
Magnetic Variation 18.754° E

METAR

PASI 110653Z 11015G26KT 5SM -RA BR BKN029 OVC036 11/08 A2980

Decode

TAF

TAF PASI 110537Z 1106/1206 12020G28KT P6SM -RA OVC050 WS020/14060KT FM111000 13013G18KT 5SM RA BR BKN018 OVC025 WS020/16040KT FM111800 14008KT 4SM -RA BR BKN010 OVC025 FM120300 14005KT P6SM -RA SCT020 BKN030 OVC050

Decode

Destination Runways

ID Width Length Bearing (true) Bearing (mag) Surface Threshold Offset Overrun Length
11 150 ft / 46 m 6,485 ft / 1,977 m 135.57° 116.82° Asphalt 0 ft / 0 m 0 ft / 0 m
29 150 ft / 46 m 6,485 ft / 1,977 m 315.59° 296.84° Asphalt 0 ft / 0 m 0 ft / 0 m

Approach Navaids

Runway Type Ident Frequency Range Bearing (true) Bearing (mag) Slope Elevation
11 Localiser ISIT 108.90 MHz 18 nm / 33 km 143.51° 124.75° - 15 ft / 5 m (AMSL)
11 DME ISIT 108.90 MHz 18 nm / 33 km - - - 34 ft / 10 m (AMSL)

Popular Alternatives